Terminal Aerodrome Forecast
Issued by NWS Houston/Galveston TX

Home | Current Version | Previous Version | Text Only | Print | Product List | Glossary On
Versions: 1 2 3 4 5 6 7 8 9 10 11 12 13 14 15 16 17 18 19 20 21 22 23 24 25
000
FTUS44 KHGX 241733
TAFHOU
TAF
KHOU 241733Z 2418/2518 27005KT P6SM VCSH SCT040 SCT250
     FM241930 16008KT P6SM VCTS SCT050CB SCT250
      TEMPO 2420/2422 VRB08G19KT TSRA BKN045CB
     FM250000 17005KT P6SM SCT250
     FM251400 VRB03KT P6SM SCT025 BKN250 PROB30 2514/2517 SHRA
     FM251700 18005KT P6SM VCTS BKN035CB OVC250=

USA.gov is the U.S. government's official web portal to all federal, state and local government web resources and services.